createdAt,value
2023-05-20T00:00:10.401Z,97553.81
2023-05-20T00:02:37.359Z,97558.97
2023-05-20T00:05:04.225Z,97557.38
2023-05-20T00:07:30.962Z,97547.94
2023-05-20T00:09:57.600Z,97542.81
2023-05-20T00:12:24.225Z,97542.00
2023-05-20T00:14:50.794Z,97544.56
2023-05-20T00:17:17.702Z,97543.66
2023-05-20T00:19:44.265Z,97537.78
2023-05-20T00:22:17.033Z,97546.22
2023-05-20T00:24:43.586Z,97527.28
2023-05-20T00:27:10.115Z,97545.38
2023-05-20T00:29:36.715Z,97537.72
2023-05-20T00:32:03.377Z,97539.44
2023-05-20T00:34:29.977Z,97535.16
2023-05-20T00:36:56.624Z,97530.91
2023-05-20T00:39:23.220Z,97533.47
2023-05-20T00:41:49.826Z,97521.44
2023-05-20T00:44:17.999Z,97524.97
2023-05-20T00:46:45.187Z,97521.53
2023-05-20T00:49:11.754Z,97521.38
2023-05-20T00:51:38.371Z,97527.56
2023-05-20T00:54:04.914Z,97529.25
2023-05-20T00:56:31.473Z,97524.13
2023-05-20T00:58:58.025Z,97524.13
2023-05-20T01:01:24.596Z,97529.25
2023-05-20T01:03:51.850Z,97518.16
2023-05-20T01:06:18.423Z,97516.47
2023-05-20T01:08:44.985Z,97519.91
2023-05-20T01:11:14.904Z,97513.88
2023-05-20T01:13:50.843Z,97524.13
2023-05-20T01:16:18.162Z,97518.16
2023-05-20T01:18:44.783Z,97522.41
2023-05-20T01:21:12.146Z,97519.84
2023-05-20T01:23:42.004Z,97516.44
2023-05-20T01:26:08.724Z,97510.50
2023-05-20T01:28:35.890Z,97513.94
2023-05-20T01:31:04.131Z,97504.50
2023-05-20T01:33:31.105Z,97513.06
2023-05-20T01:35:57.845Z,97494.94
2023-05-20T01:38:24.401Z,97509.59
2023-05-20T01:40:51.420Z,97509.66
2023-05-20T01:43:18.757Z,97508.78
2023-05-20T01:45:45.344Z,97515.59
2023-05-20T01:48:12.216Z,97502.78
2023-05-20T01:50:39.094Z,97500.25
2023-05-20T01:53:06.049Z,97501.94
2023-05-20T01:55:32.721Z,97492.59
2023-05-20T01:57:59.395Z,97495.13
2023-05-20T02:00:25.999Z,97492.50
2023-05-20T02:02:52.609Z,97492.50
2023-05-20T02:05:19.232Z,97487.34
2023-05-20T02:07:45.859Z,97493.38
2023-05-20T02:10:12.435Z,97496.84
2023-05-20T02:12:39.207Z,97484.75
2023-05-20T02:15:06.517Z,97495.88
2023-05-20T02:17:33.124Z,97485.63
2023-05-20T02:19:59.797Z,97495.00
2023-05-20T02:22:26.401Z,97491.56
2023-05-20T02:24:53.000Z,97487.28
2023-05-20T02:27:19.565Z,97489.06
2023-05-20T02:29:46.481Z,97487.34
2023-05-20T02:32:13.052Z,97472.91
2023-05-20T02:34:39.715Z,97475.47
2023-05-20T02:37:06.311Z,97478.06
2023-05-20T02:39:32.981Z,97476.34
2023-05-20T02:41:59.520Z,97466.09
2023-05-20T02:44:26.068Z,97469.38
2023-05-20T02:46:52.641Z,97476.28
2023-05-20T02:49:19.261Z,97476.28
2023-05-20T02:51:45.856Z,97471.16
2023-05-20T02:54:12.512Z,97483.03
2023-05-20T02:56:39.333Z,97482.13
2023-05-20T02:59:07.184Z,97467.66
2023-05-20T03:01:35.514Z,97479.59
2023-05-20T03:04:05.279Z,97475.31
2023-05-20T03:06:32.059Z,97476.19
2023-05-20T03:08:59.605Z,97477.03
2023-05-20T03:11:26.326Z,97476.13
2023-05-20T03:13:52.915Z,97476.94
2023-05-20T03:16:19.489Z,97476.94
2023-05-20T03:18:46.379Z,97483.84
2023-05-20T03:21:13.267Z,97482.09
2023-05-20T03:23:39.820Z,97479.53
2023-05-20T03:26:06.871Z,97468.28
2023-05-20T03:28:33.412Z,97476.13
2023-05-20T03:31:00.006Z,97481.25
2023-05-20T03:33:26.952Z,97487.13
2023-05-20T03:35:53.630Z,97469.84
2023-05-20T03:38:20.273Z,97476.94
2023-05-20T03:40:46.874Z,97489.69
2023-05-20T03:43:13.406Z,97490.56
2023-05-20T03:45:39.949Z,97483.59
2023-05-20T03:48:07.105Z,97485.41
2023-05-20T03:50:33.829Z,97479.31
2023-05-20T03:53:00.530Z,97496.50
2023-05-20T03:55:27.865Z,97500.72
2023-05-20T03:57:54.985Z,97492.03
2023-05-20T04:00:21.617Z,97493.94
2023-05-20T04:02:48.325Z,97484.44
2023-05-20T04:05:15.165Z,97484.53
2023-05-20T04:07:41.752Z,97485.41
2023-05-20T04:10:08.925Z,97491.34
2023-05-20T04:12:37.761Z,97493.91
2023-05-20T04:15:04.809Z,97492.13
2023-05-20T04:17:31.633Z,97496.38
2023-05-20T04:19:59.948Z,97493.00
2023-05-20T04:22:27.016Z,97493.91
2023-05-20T04:24:53.599Z,97489.59
2023-05-20T04:27:21.628Z,97493.06
2023-05-20T04:29:48.357Z,97492.13
2023-05-20T04:32:17.412Z,97486.03
2023-05-20T04:34:45.183Z,97493.84
2023-05-20T04:37:13.152Z,97495.50
2023-05-20T04:39:40.235Z,97492.03
2023-05-20T04:42:06.847Z,97494.56
2023-05-20T04:44:33.400Z,97491.19
2023-05-20T04:47:00.162Z,97487.75
2023-05-20T04:49:26.943Z,97486.06
2023-05-20T04:51:55.396Z,97484.31
2023-05-20T04:54:22.084Z,97493.78
2023-05-20T04:56:48.643Z,97498.06
2023-05-20T04:59:15.226Z,97493.78
2023-05-20T05:01:41.902Z,97493.84
2023-05-20T05:04:08.573Z,97494.69
2023-05-20T05:06:36.195Z,97488.78
2023-05-20T05:09:02.781Z,97458.66
2023-05-20T05:11:29.373Z,97478.53
2023-05-20T05:13:56.710Z,97481.03
2023-05-20T05:16:23.366Z,97479.38
2023-05-20T05:18:50.062Z,97480.25
2023-05-20T05:21:16.720Z,97475.09
2023-05-20T05:23:43.348Z,97475.16
2023-05-20T05:26:09.882Z,97464.91
2023-05-20T05:28:36.457Z,97479.47
2023-05-20T05:31:03.063Z,97467.56
2023-05-20T05:33:30.217Z,97474.44
2023-05-20T05:35:59.242Z,97473.63
2023-05-20T05:38:26.062Z,97462.50
2023-05-20T05:40:53.064Z,97462.56
2023-05-20T05:43:19.649Z,97457.34
2023-05-20T05:45:46.275Z,97461.69
2023-05-20T05:48:12.871Z,97452.31
2023-05-20T05:50:39.491Z,97465.09
2023-05-20T05:53:06.103Z,97454.84
2023-05-20T05:55:33.398Z,97454.03
2023-05-20T05:58:00.163Z,97449.75
2023-05-20T06:00:26.715Z,97453.22
2023-05-20T06:02:53.502Z,97425.06
2023-05-20T06:05:20.217Z,97431.00
2023-05-20T06:07:46.828Z,97449.06
2023-05-20T06:10:13.493Z,97443.88
2023-05-20T06:12:40.082Z,97445.53
2023-05-20T06:15:07.341Z,97454.84
2023-05-20T06:17:33.936Z,97433.63
2023-05-20T06:20:00.616Z,97431.00
2023-05-20T06:22:27.220Z,97437.09
2023-05-20T06:24:54.099Z,97440.53
2023-05-20T06:27:20.649Z,97444.84
2023-05-20T06:29:47.255Z,97444.84
2023-05-20T06:32:13.821Z,97443.13
2023-05-20T06:34:40.836Z,97438.72
2023-05-20T06:37:07.371Z,97448.28
2023-05-20T06:39:33.927Z,97441.44
2023-05-20T06:42:00.418Z,97438.88
2023-05-20T06:44:27.020Z,97435.44
2023-05-20T06:46:53.568Z,97442.16
2023-05-20T06:49:20.162Z,97442.97
2023-05-20T06:51:46.673Z,97443.81
2023-05-20T06:54:13.171Z,97444.69
2023-05-20T06:56:39.724Z,97437.94
2023-05-20T06:59:06.304Z,97438.78
2023-05-20T07:01:32.861Z,97438.81
2023-05-20T07:03:59.466Z,97431.16
2023-05-20T07:06:26.100Z,97426.91
2023-05-20T07:08:52.679Z,97424.44
2023-05-20T07:11:19.225Z,97425.22
2023-05-20T07:13:45.813Z,97420.22
2023-05-20T07:16:12.420Z,97410.00
2023-05-20T07:18:39.014Z,97411.75
2023-05-20T07:21:05.649Z,97409.31
2023-05-20T07:23:32.238Z,97411.03
2023-05-20T07:25:58.866Z,97401.66
2023-05-20T07:28:25.500Z,97406.88
2023-05-20T07:30:52.848Z,97402.66
2023-05-20T07:33:20.826Z,97403.50
2023-05-20T07:35:47.424Z,97375.56
2023-05-20T07:38:14.031Z,97418.06
2023-05-20T07:40:41.487Z,97412.91
2023-05-20T07:43:08.618Z,97415.50
2023-05-20T07:45:36.877Z,97403.50
2023-05-20T07:48:04.559Z,97410.41
2023-05-20T07:50:31.326Z,97413.00
2023-05-20T07:52:57.874Z,97401.97
2023-05-20T07:55:24.511Z,97405.41
2023-05-20T07:57:51.179Z,97398.59
2023-05-20T08:00:17.946Z,97395.25
2023-05-20T08:02:44.664Z,97407.16
2023-05-20T08:05:11.557Z,97407.13
2023-05-20T08:07:38.148Z,97400.34
2023-05-20T08:10:05.058Z,97396.91
2023-05-20T08:12:31.669Z,97402.91
2023-05-20T08:14:58.217Z,97396.97
2023-05-20T08:17:24.862Z,97391.91
2023-05-20T08:19:51.506Z,97394.50
2023-05-20T08:22:18.041Z,97391.16
2023-05-20T08:24:44.651Z,97391.16
2023-05-20T08:27:11.265Z,97391.28
2023-05-20T08:29:37.861Z,97393.88
2023-05-20T08:32:04.748Z,97384.53
2023-05-20T08:34:31.395Z,97387.19
2023-05-20T08:36:58.059Z,97386.34
2023-05-20T08:39:25.687Z,97388.97
2023-05-20T08:41:52.244Z,97383.06
2023-05-20T08:44:19.434Z,97385.66
2023-05-20T08:46:46.062Z,97372.81
2023-05-20T08:49:12.766Z,97378.91
2023-05-20T08:51:39.353Z,97380.66
2023-05-20T08:54:07.058Z,97380.66
2023-05-20T08:56:33.913Z,97371.09
2023-05-20T08:59:00.827Z,97372.13
2023-05-20T09:01:27.421Z,97367.88
2023-05-20T09:03:54.077Z,97370.44
2023-05-20T09:06:20.722Z,97366.16
2023-05-20T09:08:51.360Z,97381.53
2023-05-20T09:11:17.934Z,97375.63
2023-05-20T09:13:44.616Z,97363.72
2023-05-20T09:16:11.586Z,97362.03
2023-05-20T09:18:41.604Z,97365.41
2023-05-20T09:21:10.619Z,97362.91
2023-05-20T09:23:38.473Z,97372.25
2023-05-20T09:26:05.225Z,97354.28
2023-05-20T09:28:31.809Z,97360.41
2023-05-20T09:30:59.255Z,97359.50
2023-05-20T09:33:32.493Z,97366.44
2023-05-20T09:36:05.879Z,97369.00
2023-05-20T09:38:38.070Z,97368.16
2023-05-20T09:41:09.645Z,97377.53
2023-05-20T09:43:36.548Z,97377.53
2023-05-20T09:46:04.273Z,97369.09
2023-05-20T09:48:34.339Z,97358.78
2023-05-20T09:51:01.219Z,97363.97
2023-05-20T09:53:28.371Z,97355.41
2023-05-20T09:55:55.290Z,97357.16
2023-05-20T09:58:22.899Z,97360.59
2023-05-20T10:00:49.857Z,97346.16
2023-05-20T10:03:17.063Z,97350.38
2023-05-20T10:06:17.458Z,97340.16
2023-05-20T10:08:54.590Z,97340.16
2023-05-20T10:11:44.239Z,97330.78
2023-05-20T10:14:23.012Z,97333.38
2023-05-20T10:17:01.677Z,97340.16
2023-05-20T10:19:34.611Z,97322.28
2023-05-20T10:22:11.085Z,97317.19
2023-05-20T10:24:43.008Z,97323.13
2023-05-20T10:27:11.008Z,97320.66
2023-05-20T10:29:52.648Z,97324.94
2023-05-20T10:32:28.695Z,97315.59
2023-05-20T10:35:06.180Z,97318.97
2023-05-20T10:37:33.998Z,97312.22
2023-05-20T10:40:07.121Z,97269.63
2023-05-20T10:42:33.683Z,97308.84
2023-05-20T10:45:00.244Z,97308.84
2023-05-20T10:47:26.886Z,97307.13
2023-05-20T10:49:53.572Z,97313.13
2023-05-20T10:52:20.677Z,97295.97
2023-05-20T10:54:50.941Z,97298.63
2023-05-20T10:57:18.353Z,97302.06
2023-05-20T10:59:44.982Z,97298.63
2023-05-20T11:02:14.416Z,97288.31
2023-05-20T11:04:44.405Z,97293.50
2023-05-20T11:07:11.061Z,97283.22
2023-05-20T11:09:37.797Z,97290.13
2023-05-20T11:12:04.629Z,97280.66
2023-05-20T11:14:31.415Z,97290.91
2023-05-20T11:17:01.473Z,97290.91
2023-05-20T11:19:28.182Z,97284.97
2023-05-20T11:21:54.995Z,97281.56
2023-05-20T11:24:28.102Z,97272.97
2023-05-20T11:26:55.865Z,97281.56
2023-05-20T11:29:22.461Z,97279.03
2023-05-20T11:31:52.316Z,97268.78
2023-05-20T11:34:25.647Z,97274.78
2023-05-20T11:36:59.149Z,97278.19
2023-05-20T11:39:27.565Z,97276.50
2023-05-20T11:41:54.214Z,97279.13
2023-05-20T11:44:21.151Z,97273.09
2023-05-20T11:46:48.036Z,97271.44
2023-05-20T11:49:17.476Z,97267.19
2023-05-20T11:51:44.139Z,97263.66
2023-05-20T11:54:10.682Z,97259.56
2023-05-20T11:56:37.856Z,97262.97
2023-05-20T11:59:05.582Z,97258.69
2023-05-20T12:01:41.032Z,97262.13
2023-05-20T12:04:08.321Z,97256.97
2023-05-20T12:06:35.274Z,97270.63
2023-05-20T12:09:07.107Z,97268.06
2023-05-20T12:11:37.686Z,97258.72
2023-05-20T12:14:04.438Z,97257.06
2023-05-20T12:16:32.035Z,97268.09
2023-05-20T12:18:58.797Z,97255.28
2023-05-20T12:21:25.537Z,97255.25
2023-05-20T12:23:57.498Z,97263.03
2023-05-20T12:26:27.937Z,97265.59
2023-05-20T12:28:54.826Z,97258.81
2023-05-20T12:31:21.416Z,97256.25
2023-05-20T12:33:48.058Z,97240.09
2023-05-20T12:36:14.946Z,97263.09
2023-05-20T12:38:41.691Z,97246.94
2023-05-20T12:41:08.390Z,97240.94
2023-05-20T12:43:36.999Z,97254.59
2023-05-20T12:46:04.067Z,97249.47
2023-05-20T12:48:30.615Z,97255.44
2023-05-20T12:50:57.174Z,97252.91
2023-05-20T12:53:54.709Z,97249.47
2023-05-20T12:56:22.174Z,97254.53
2023-05-20T12:58:48.788Z,97255.38
2023-05-20T13:01:15.331Z,97250.28
2023-05-20T13:03:42.049Z,97248.56
2023-05-20T13:06:08.633Z,97247.72
2023-05-20T13:08:35.166Z,97252.00
2023-05-20T13:11:01.687Z,97244.28
2023-05-20T13:13:28.216Z,97248.50
2023-05-20T13:15:54.840Z,97257.84
2023-05-20T13:18:21.523Z,97234.91
2023-05-20T13:20:48.086Z,97238.31
2023-05-20T13:23:14.623Z,97235.69
2023-05-20T13:25:41.196Z,97226.31
2023-05-20T13:28:07.733Z,97226.31
2023-05-20T13:30:34.626Z,97221.19
2023-05-20T13:33:01.351Z,97222.84
2023-05-20T13:35:27.898Z,97217.69
2023-05-20T13:37:54.441Z,97210.78
2023-05-20T13:40:21.071Z,97220.22
2023-05-20T13:42:47.620Z,97220.22
2023-05-20T13:45:14.268Z,97212.56
2023-05-20T13:47:41.551Z,97203.19
2023-05-20T13:50:08.911Z,97194.63
2023-05-20T13:52:35.476Z,97186.94
2023-05-20T13:55:02.105Z,97197.16
2023-05-20T13:57:28.625Z,97190.38
2023-05-20T13:59:55.159Z,97187.81
2023-05-20T14:02:21.773Z,97183.50
2023-05-20T14:04:48.400Z,97175.00
2023-05-20T14:07:15.034Z,97175.69
2023-05-20T14:09:41.637Z,97176.69
2023-05-20T14:12:08.200Z,97174.97
2023-05-20T14:14:34.804Z,97176.63
2023-05-20T14:17:01.377Z,97175.75
2023-05-20T14:19:28.931Z,97178.31
2023-05-20T14:21:55.754Z,97160.41
2023-05-20T14:24:23.797Z,97158.72
2023-05-20T14:26:50.553Z,97167.25
2023-05-20T14:29:17.088Z,97161.28
2023-05-20T14:31:43.743Z,97158.72
2023-05-20T14:34:10.694Z,97157.00
2023-05-20T14:36:37.556Z,97153.59
2023-05-20T14:39:04.121Z,97152.72
2023-05-20T14:41:30.693Z,97153.53
2023-05-20T14:43:57.332Z,97144.13
2023-05-20T14:46:23.937Z,97157.72
2023-05-20T14:48:50.824Z,97145.75
2023-05-20T14:51:17.477Z,97153.41
2023-05-20T14:53:44.024Z,97151.66
2023-05-20T14:56:10.612Z,97144.75
2023-05-20T14:58:37.192Z,97153.34
2023-05-20T15:01:03.981Z,97142.19
2023-05-20T15:03:30.919Z,97143.88
2023-05-20T15:05:57.546Z,97143.88
2023-05-20T15:08:24.117Z,97137.00
2023-05-20T15:10:50.760Z,97137.06
2023-05-20T15:13:17.447Z,97135.38
2023-05-20T15:15:44.408Z,97126.84
2023-05-20T15:18:11.716Z,97138.81
2023-05-20T15:20:38.364Z,97135.41
2023-05-20T15:23:05.147Z,97138.00
2023-05-20T15:25:31.743Z,97140.63
2023-05-20T15:27:58.271Z,97133.78
2023-05-20T15:30:25.180Z,97140.66
2023-05-20T15:32:51.823Z,97137.25
2023-05-20T15:35:18.441Z,97137.31
2023-05-20T15:37:45.011Z,97137.31
2023-05-20T15:40:11.965Z,97144.13
2023-05-20T15:42:38.540Z,97140.75
2023-05-20T15:45:05.383Z,97145.00
2023-05-20T15:47:31.956Z,97142.38
2023-05-20T15:49:58.512Z,97139.94
2023-05-20T15:52:25.121Z,97150.16
2023-05-20T15:54:51.677Z,97145.00
2023-05-20T15:57:18.360Z,97146.84
2023-05-20T15:59:44.940Z,97145.09
2023-05-20T16:02:11.554Z,97143.44
2023-05-20T16:04:38.166Z,97148.53
2023-05-20T16:07:04.929Z,97140.88
2023-05-20T16:09:31.622Z,97142.56
2023-05-20T16:11:58.216Z,97140.91
2023-05-20T16:14:24.939Z,97147.69
2023-05-20T16:16:51.529Z,97151.13
2023-05-20T16:19:18.164Z,97151.13
2023-05-20T16:21:44.933Z,97140.81
2023-05-20T16:24:12.375Z,97149.41
2023-05-20T16:26:38.958Z,97151.13
2023-05-20T16:29:05.787Z,97148.56
2023-05-20T16:31:32.367Z,97136.66
2023-05-20T16:33:58.933Z,97139.22
2023-05-20T16:36:25.882Z,97142.63
2023-05-20T16:38:52.432Z,97138.34
2023-05-20T16:41:19.060Z,97150.28
2023-05-20T16:43:45.644Z,97148.56
2023-05-20T16:46:14.507Z,97156.25
2023-05-20T16:48:41.626Z,97153.72
2023-05-20T16:51:08.230Z,97154.53
2023-05-20T16:53:34.875Z,97148.59
2023-05-20T16:56:01.496Z,97145.94
2023-05-20T16:58:28.030Z,97152.88
2023-05-20T17:00:55.157Z,97149.47
2023-05-20T17:03:21.937Z,97150.31
2023-05-20T17:05:48.762Z,97151.19
2023-05-20T17:08:16.086Z,97148.59
2023-05-20T17:10:42.707Z,97152.03
2023-05-20T17:13:09.345Z,97157.13
2023-05-20T17:15:37.147Z,97154.59
2023-05-20T17:18:04.111Z,97150.31
2023-05-20T17:20:30.946Z,97157.13
2023-05-20T17:22:57.567Z,97155.44
2023-05-20T17:25:24.240Z,97152.88
2023-05-20T17:27:50.848Z,97163.09
2023-05-20T17:30:17.447Z,97153.72
2023-05-20T17:32:44.260Z,97166.50
2023-05-20T17:35:10.945Z,97166.50
2023-05-20T17:37:37.670Z,97164.78
2023-05-20T17:40:07.396Z,97160.53
2023-05-20T17:42:34.050Z,97168.19
2023-05-20T17:45:00.946Z,97163.97
2023-05-20T17:47:27.516Z,97164.78
2023-05-20T17:49:54.125Z,97165.59
2023-05-20T17:52:20.674Z,97164.75
2023-05-20T17:54:47.281Z,97161.31
2023-05-20T17:57:13.814Z,97163.00
2023-05-20T17:59:41.950Z,97157.84
2023-05-20T18:02:08.811Z,97158.72
2023-05-20T18:04:35.923Z,97161.28
2023-05-20T18:07:03.986Z,97172.31
2023-05-20T18:09:30.693Z,97166.34
2023-05-20T18:11:57.285Z,97177.34
2023-05-20T18:14:23.875Z,97174.00
2023-05-20T18:16:50.695Z,97177.44
2023-05-20T18:19:17.294Z,97164.66
2023-05-20T18:21:44.057Z,97174.00
2023-05-20T18:24:11.584Z,97181.72
2023-05-20T18:26:38.286Z,97178.19
2023-05-20T18:29:04.852Z,97180.00
2023-05-20T18:31:31.485Z,97173.13
2023-05-20T18:33:58.093Z,97178.22
2023-05-20T18:36:24.847Z,97179.06
2023-05-20T18:38:51.460Z,97174.75
2023-05-20T18:41:18.046Z,97177.31
2023-05-20T18:43:44.604Z,97179.03
2023-05-20T18:46:11.365Z,97184.97
2023-05-20T18:48:38.037Z,97182.38
2023-05-20T18:51:04.629Z,97190.03
2023-05-20T18:53:31.189Z,97195.97
2023-05-20T18:56:02.845Z,97194.31
2023-05-20T18:58:29.931Z,97192.53
2023-05-20T19:00:56.654Z,97190.00
2023-05-20T19:03:25.179Z,97187.44
2023-05-20T19:05:52.077Z,97192.53
2023-05-20T19:08:18.697Z,97190.00
2023-05-20T19:10:45.426Z,97191.69
2023-05-20T19:13:11.984Z,97188.31
2023-05-20T19:15:38.580Z,97187.44
2023-05-20T19:18:05.227Z,97194.31
2023-05-20T19:20:34.034Z,97181.50
2023-05-20T19:23:00.668Z,97186.59
2023-05-20T19:25:27.456Z,97189.16
2023-05-20T19:27:54.249Z,97189.19
2023-05-20T19:30:21.056Z,97189.16
2023-05-20T19:32:47.600Z,97190.81
2023-05-20T19:35:14.277Z,97198.53
2023-05-20T19:37:41.112Z,97190.81
2023-05-20T19:40:08.277Z,97199.38
2023-05-20T19:42:35.089Z,97194.25
2023-05-20T19:45:01.677Z,97200.22
2023-05-20T19:47:28.273Z,97197.59
2023-05-20T19:49:54.883Z,97195.06
2023-05-20T19:52:21.522Z,97200.22
2023-05-20T19:54:48.127Z,97205.25
2023-05-20T19:57:14.837Z,97206.94
2023-05-20T19:59:41.697Z,97216.28
2023-05-20T20:02:08.314Z,97217.97
2023-05-20T20:04:34.956Z,97213.75
2023-05-20T20:07:02.414Z,97215.38
2023-05-20T20:09:29.304Z,97214.59
2023-05-20T20:11:56.227Z,97225.59
2023-05-20T20:14:22.776Z,97216.28
2023-05-20T20:16:49.649Z,97229.03
2023-05-20T20:19:22.027Z,97217.06
2023-05-20T20:21:49.283Z,97217.09
2023-05-20T20:24:15.863Z,97225.59
2023-05-20T20:26:42.437Z,97217.97
2023-05-20T20:29:09.002Z,97225.63
2023-05-20T20:31:35.878Z,97225.69
2023-05-20T20:34:02.512Z,97222.28
2023-05-20T20:36:32.112Z,97221.47
2023-05-20T20:38:59.609Z,97196.41
2023-05-20T20:41:26.228Z,97227.44
2023-05-20T20:43:53.235Z,97218.91
2023-05-20T20:46:19.831Z,97222.28
2023-05-20T20:48:46.889Z,97224.84
2023-05-20T20:51:15.087Z,97221.38
2023-05-20T20:53:47.015Z,97217.91
2023-05-20T20:56:13.750Z,97219.69
2023-05-20T20:58:40.340Z,97224.81
2023-05-20T21:01:07.048Z,97219.69
2023-05-20T21:03:40.514Z,97223.03
2023-05-20T21:06:07.804Z,97217.94
2023-05-20T21:08:34.658Z,97215.38
2023-05-20T21:11:01.514Z,97211.16
2023-05-20T21:13:28.849Z,97211.13
2023-05-20T21:15:55.431Z,97211.16
2023-05-20T21:18:22.940Z,97211.16
2023-05-20T21:20:53.216Z,97212.84
2023-05-20T21:23:20.427Z,97213.72
2023-05-20T21:25:47.190Z,97211.13
2023-05-20T21:28:13.823Z,97206.88
2023-05-20T21:30:40.493Z,97206.88
2023-05-20T21:33:07.127Z,97206.00
2023-05-20T21:35:33.848Z,97205.19
2023-05-20T21:38:00.646Z,97203.47
2023-05-20T21:40:27.292Z,97203.50
2023-05-20T21:42:53.911Z,97206.88
2023-05-20T21:45:20.479Z,97210.28
2023-05-20T21:47:47.200Z,97201.69
2023-05-20T21:50:13.899Z,97205.97
2023-05-20T21:52:40.607Z,97209.41
2023-05-20T21:55:09.500Z,97202.53
2023-05-20T21:57:36.415Z,97214.50
2023-05-20T22:00:09.961Z,97205.97
2023-05-20T22:02:37.266Z,97203.41
2023-05-20T22:05:04.986Z,97196.59
2023-05-20T22:07:31.849Z,97204.28
2023-05-20T22:09:58.799Z,97199.19
2023-05-20T22:12:25.548Z,97204.28
2023-05-20T22:14:52.085Z,97195.75
2023-05-20T22:17:18.663Z,97191.50
2023-05-20T22:19:45.221Z,97190.66
2023-05-20T22:22:11.869Z,97196.63
2023-05-20T22:24:38.488Z,97193.22
2023-05-20T22:27:05.286Z,97185.56
2023-05-20T22:29:32.531Z,97187.22
2023-05-20T22:31:59.536Z,97185.50
2023-05-20T22:34:26.202Z,97188.91
2023-05-20T22:36:53.959Z,97183.75
2023-05-20T22:39:21.030Z,97182.88
2023-05-20T22:41:47.602Z,97181.19
2023-05-20T22:44:14.381Z,97181.16
2023-05-20T22:46:41.173Z,97178.59
2023-05-20T22:49:07.810Z,97174.28
2023-05-20T22:51:35.192Z,97170.03
2023-05-20T22:54:01.840Z,97173.44
2023-05-20T22:56:29.668Z,97170.91
2023-05-20T22:58:56.274Z,97166.59
2023-05-20T23:01:24.052Z,97161.44
2023-05-20T23:03:53.099Z,97167.44
2023-05-20T23:06:19.853Z,97166.56
2023-05-20T23:08:46.798Z,97162.31
2023-05-20T23:11:13.439Z,97162.31
2023-05-20T23:13:40.002Z,97152.94
2023-05-20T23:16:07.676Z,97164.88
2023-05-20T23:18:34.281Z,97160.66
2023-05-20T23:21:00.925Z,97158.91
2023-05-20T23:23:31.300Z,97153.78
2023-05-20T23:25:58.866Z,97150.41
2023-05-20T23:28:26.046Z,97152.94
2023-05-20T23:30:52.713Z,97150.34
2023-05-20T23:33:24.454Z,97161.41
2023-05-20T23:35:51.542Z,97114.03
2023-05-20T23:38:18.355Z,97149.53
2023-05-20T23:40:44.967Z,97146.94
2023-05-20T23:43:11.589Z,97138.44
2023-05-20T23:45:38.262Z,97141.81
2023-05-20T23:48:05.718Z,97139.22
2023-05-20T23:50:32.751Z,97135.00
2023-05-20T23:52:59.504Z,97141.81
2023-05-20T23:55:28.291Z,97129.81
2023-05-20T23:57:54.954Z,97131.56
